Time;durP1;ratioP1;P1;durP2;ratioP2;P2;SDS_P1;SDS_P2;PMS_P1;PMS_P2;Temp;Humidity;BMP_temperature;BMP_pressure;BME280_temperature;BME280_humidity;BME280_pressure;Samples;Min_cycle;Max_cycle;Signal;HPM_P1;HPM_P2
2023/03/12 00:00:17;;;;;;;18.30;2.37;;;5.40;92.00;;;5.23;55.49;94116.94;5074556;28;20865;-54
2023/03/12 00:02:44;;;;;;;2.10;1.90;;;5.40;91.90;;;5.26;55.42;94118.47;5075419;28;20470;-56
2023/03/12 00:05:11;;;;;;;4.50;2.30;;;5.40;91.90;;;5.26;55.87;94121.91;5069831;28;20529;-56
2023/03/12 00:07:39;;;;;;;6.33;3.40;;;5.40;91.90;;;5.26;55.40;94126.31;5079920;28;20466;-56
2023/03/12 00:10:07;;;;;;;2.43;2.20;;;5.40;91.80;;;5.25;55.05;94114.22;5076449;28;20454;-56
2023/03/12 00:12:35;;;;;;;4.50;2.00;;;5.40;91.60;;;5.24;54.50;94123.81;5064986;28;20850;-55
2023/03/12 00:15:02;;;;;;;3.53;2.30;;;5.40;91.30;;;5.24;54.81;94117.78;5072704;28;20450;-57
2023/03/12 00:17:31;;;;;;;4.43;2.50;;;5.40;91.20;;;5.24;54.90;94121.22;5072588;28;20513;-54
2023/03/12 00:19:58;;;;;;;3.20;2.60;;;5.40;91.30;;;5.23;54.76;94123.94;5066594;28;20952;-55
2023/03/12 00:22:26;;;;;;;8.80;2.50;;;5.40;91.20;;;5.22;54.73;94128.34;5059633;28;20524;-56
2023/03/12 00:24:53;;;;;;;3.40;3.10;;;5.30;91.10;;;5.19;54.47;94123.38;5067644;28;20504;-56
2023/03/12 00:27:21;;;;;;;3.50;3.20;;;5.40;91.50;;;5.16;54.32;94132.28;5062711;28;20479;-57
2023/03/12 00:29:48;;;;;;;3.73;2.73;;;5.30;90.90;;;5.15;54.51;94137.59;5068229;28;20569;-56
2023/03/12 00:32:16;;;;;;;12.60;2.30;;;5.30;91.00;;;5.14;54.47;94133.34;5071171;28;20487;-56
2023/03/12 00:34:45;;;;;;;9.60;3.30;;;5.30;91.40;;;5.12;54.73;94143.06;5065596;28;20475;-59
2023/03/12 00:37:12;;;;;;;3.63;2.97;;;5.30;91.10;;;5.10;54.40;94142.38;5064576;28;20482;-55
2023/03/12 00:39:39;;;;;;;3.00;2.80;;;5.30;91.00;;;5.08;54.89;94133.84;5076979;28;20466;-53
2023/03/12 00:42:07;;;;;;;2.73;2.53;;;5.30;91.10;;;5.06;54.40;94136.56;5071741;28;20481;-54
2023/03/12 00:44:34;;;;;;;6.93;2.60;;;5.20;90.80;;;5.03;54.72;94137.66;5067397;28;20503;-55
2023/03/12 00:47:01;;;;;;;2.80;2.60;;;5.20;91.10;;;4.99;54.52;94136.25;5069570;28;20535;-55
2023/03/12 00:49:29;;;;;;;4.70;2.83;;;5.20;91.10;;;4.97;54.93;94134.69;5070304;28;20467;-56
2023/03/12 00:51:58;;;;;;;6.77;3.43;;;5.20;91.10;;;4.94;54.58;94148.81;5061063;28;20479;-56
2023/03/12 00:54:26;;;;;;;2.90;2.70;;;5.10;91.00;;;4.93;54.73;94144.56;5065238;28;20464;-56
2023/03/12 00:56:53;;;;;;;3.80;3.20;;;5.10;91.00;;;4.93;54.89;94138.53;5063844;28;20485;-56
2023/03/12 00:59:21;;;;;;;3.40;3.10;;;5.10;91.10;;;4.92;54.75;94145.50;5064713;28;20846;-56
2023/03/12 01:01:48;;;;;;;3.33;3.03;;;5.10;91.00;;;4.92;54.89;94145.50;5064337;28;20588;-56
2023/03/12 01:04:16;;;;;;;9.43;3.27;;;5.10;91.00;;;4.89;54.27;94143.13;5074113;28;20496;-56
2023/03/12 01:06:43;;;;;;;3.00;2.80;;;5.10;90.80;;;4.86;54.59;94138.16;5071883;28;20475;-54
2023/03/12 01:09:12;;;;;;;2.93;2.73;;;5.00;90.80;;;4.82;54.67;94144.59;5065722;28;20458;-56
2023/03/12 01:11:39;;;;;;;7.60;2.40;;;5.00;90.90;;;4.79;54.72;94142.25;5075875;28;20485;-55
2023/03/12 01:14:07;;;;;;;6.13;2.90;;;5.00;91.00;;;4.76;54.31;94138.09;5074962;28;20530;-56
2023/03/12 01:16:35;;;;;;;4.17;3.07;;;5.00;90.70;;;4.73;54.61;94143.56;5068041;28;20486;-57
2023/03/12 01:19:02;;;;;;;3.43;3.13;;;4.90;90.70;;;4.70;54.72;94156.00;5073790;28;20458;-56
2023/03/12 01:21:30;;;;;;;9.30;2.93;;;4.90;90.90;;;4.67;54.71;94149.25;5071218;28;20479;-56
2023/03/12 01:23:57;;;;;;;3.40;3.20;;;4.90;90.90;;;4.66;55.20;94161.44;5067624;28;20458;-61
2023/03/12 01:26:26;;;;;;;3.63;2.17;;;4.90;91.20;;;4.65;54.79;94154.56;5069432;28;21025;-56
2023/03/12 01:28:53;;;;;;;5.77;2.80;;;4.80;91.00;;;4.64;54.65;94158.13;5073805;28;20466;-56
2023/03/12 01:31:20;;;;;;;6.10;3.17;;;4.80;90.90;;;4.62;54.88;94162.63;5066409;28;20462;-56
2023/03/12 01:33:50;;;;;;;3.10;2.90;;;4.80;90.90;;;4.63;54.87;94166.06;5068053;28;20468;-56
2023/03/12 01:36:18;;;;;;;2.90;2.60;;;4.80;90.90;;;4.61;54.99;94163.56;5069894;28;20538;-56
2023/03/12 01:38:46;;;;;;;3.10;2.30;;;4.80;91.10;;;4.61;54.94;94163.56;5071645;28;20523;-55
2023/03/12 01:41:13;;;;;;;6.83;3.93;;;4.80;91.20;;;4.63;54.87;94166.06;5062308;28;20520;-57
2023/03/12 01:43:42;;;;;;;4.67;3.20;;;4.80;91.10;;;4.62;54.86;94159.22;5071797;28;21016;-56
2023/03/12 01:46:33;;;;;;;3.60;3.37;;;4.80;91.00;;;4.60;54.85;94155.88;5070394;28;20494;-57
2023/03/12 01:49:06;;;;;;;5.93;3.00;;;4.80;91.20;;;4.61;54.77;94160.16;5064158;28;20779;-56
2023/03/12 01:51:36;;;;;;;2.80;2.70;;;4.80;91.00;;;4.59;54.92;94157.66;5075021;28;20490;-56
2023/03/12 01:54:08;;;;;;;4.30;3.13;;;4.80;91.10;;;4.59;54.93;94159.44;5072263;28;20455;-57
2023/03/12 01:56:35;;;;;;;3.43;3.23;;;4.80;91.20;;;4.58;54.79;94148.19;5066381;28;20543;-54
2023/03/12 01:59:08;;;;;;;5.53;3.20;;;4.80;91.20;;;4.58;55.18;94148.19;5069757;28;20655;-56
2023/03/12 02:01:35;;;;;;;5.17;3.37;;;4.70;91.30;;;4.55;55.05;94148.44;5068346;28;21019;-57
2023/03/12 02:04:03;;;;;;;5.30;2.60;;;4.70;91.30;;;4.54;54.99;94145.94;5069150;28;20450;-55
2023/03/12 02:06:35;;;;;;;3.60;3.30;;;4.70;91.30;;;4.52;55.32;94156.47;5059823;28;20489;-56
2023/03/12 02:09:03;;;;;;;9.03;3.10;;;4.70;91.30;;;4.50;55.13;94161.00;5067929;28;20568;-57
2023/03/12 02:11:30;;;;;;;3.00;2.80;;;4.70;91.20;;;4.49;55.27;94148.91;5059558;28;20475;-56
2023/03/12 02:13:57;;;;;;;3.00;2.80;;;4.70;91.60;;;4.48;55.28;94163.72;5063594;28;20908;-57
2023/03/12 02:16:26;;;;;;;10.90;5.00;;;4.70;91.30;;;4.48;55.28;94152.47;5070945;28;20883;-57
2023/03/12 02:18:54;;;;;;;5.17;3.53;;;4.70;91.30;;;4.44;55.18;94166.69;5068921;28;20550;-56
2023/03/12 02:21:23;;;;;;;3.30;3.10;;;4.60;91.20;;;4.40;55.17;94171.31;5063373;28;20463;-55
2023/03/12 02:23:57;;;;;;;7.10;4.10;;;4.60;91.30;;;4.40;55.37;94168.72;5076214;28;20840;-56
2023/03/12 02:26:26;;;;;;;3.67;3.30;;;4.60;91.30;;;4.39;55.20;94174.84;5071673;28;20502;-56
2023/03/12 02:28:54;;;;;;;3.00;2.80;;;4.60;91.40;;;4.40;55.37;94175.66;5055921;28;20465;-55
2023/03/12 02:31:23;;;;;;;4.47;2.93;;;4.60;91.40;;;4.40;55.14;94173.06;5068785;28;20483;-56
2023/03/12 02:33:51;;;;;;;9.63;5.80;;;4.60;91.40;;;4.42;55.32;94185.03;5070623;28;20466;-57
2023/03/12 02:36:19;;;;;;;4.27;3.87;;;4.60;91.40;;;4.43;55.20;94191.06;5068948;28;20574;-56
2023/03/12 02:38:47;;;;;;;7.03;2.67;;;4.60;91.40;;;4.43;55.39;94201.47;5072045;28;20446;-54
2023/03/12 02:41:18;;;;;;;3.70;3.10;;;4.60;91.30;;;4.43;55.44;94198.88;5075581;28;20443;-56
2023/03/12 02:43:49;;;;;;;3.40;3.17;;;4.60;91.50;;;4.44;55.42;94205.75;5068590;28;20454;-54
2023/03/12 02:46:17;;;;;;;6.70;3.30;;;4.60;91.50;;;4.44;55.50;94200.53;5067880;28;20560;-55
2023/03/12 02:48:44;;;;;;;5.80;3.70;;;4.60;91.50;;;4.45;55.52;94213.44;5077021;28;20454;-56
2023/03/12 02:51:11;;;;;;;3.47;3.20;;;4.60;91.50;;;4.45;55.65;94210.81;5067084;28;20463;-55
2023/03/12 02:53:38;;;;;;;3.13;2.93;;;4.60;91.60;;;4.47;55.76;94218.53;5071443;28;20974;-56
2023/03/12 02:56:06;;;;;;;5.27;4.10;;;4.60;91.60;;;4.46;55.62;94225.50;5076212;28;20469;-56
2023/03/12 02:58:35;;;;;;;5.73;3.00;;;4.70;91.70;;;4.48;55.48;94226.22;5066241;28;20462;-55
2023/03/12 03:01:03;;;;;;;3.27;3.07;;;4.60;91.60;;;4.48;55.44;94226.22;5069832;28;21009;-56
2023/03/12 03:03:31;;;;;;;5.50;2.90;;;4.70;91.60;;;4.47;55.76;94228.94;5073673;28;20451;-56
2023/03/12 03:05:58;;;;;;;2.93;2.73;;;4.70;91.60;;;4.46;55.62;94224.66;5075189;28;20501;-56
2023/03/12 03:08:25;;;;;;;4.60;2.43;;;4.70;91.70;;;4.45;55.51;94225.63;5071399;28;20482;-57
2023/03/12 03:10:54;;;;;;;4.53;3.20;;;4.60;91.70;;;4.43;55.59;94223.16;5069446;28;20918;-55
2023/03/12 03:13:21;;;;;;;6.53;4.00;;;4.60;91.70;;;4.39;55.92;94220.91;5075176;28;20509;-56
2023/03/12 03:15:48;;;;;;;3.07;2.87;;;4.60;91.80;;;4.37;55.67;94213.22;5068422;28;20550;-54
2023/03/12 03:18:17;;;;;;;4.20;3.00;;;4.60;91.80;;;4.37;55.89;94217.56;5072065;28;20486;-54
2023/03/12 03:20:44;;;;;;;3.57;3.27;;;4.50;91.80;;;4.32;55.58;94215.31;5075396;28;20528;-54
2023/03/12 03:23:12;;;;;;;3.60;3.30;;;4.50;91.70;;;4.28;55.76;94224.31;5068773;28;20488;-55
2023/03/12 03:25:39;;;;;;;3.53;3.20;;;4.50;91.80;;;4.26;55.73;94227.03;5066517;28;20495;-56
2023/03/12 03:28:06;;;;;;;3.13;2.93;;;4.50;91.80;;;4.25;55.54;94229.75;5078849;28;20473;-56
2023/03/12 03:30:34;;;;;;;3.30;2.97;;;4.40;91.80;;;4.23;55.88;94224.69;5066809;28;20619;-56
2023/03/12 03:33:02;;;;;;;3.33;3.03;;;4.40;91.80;;;4.22;55.88;94225.59;5066579;28;20828;-55
2023/03/12 03:35:30;;;;;;;2.50;2.40;;;4.40;91.90;;;4.21;56.37;94231.75;5071341;28;20542;-56
2023/03/12 03:37:57;;;;;;;5.07;3.30;;;4.40;92.10;;;4.19;56.08;94225.84;5072040;28;20889;-54
2023/03/12 03:40:25;;;;;;;3.80;3.37;;;4.40;92.10;;;4.17;55.92;94232.09;5069109;28;20463;-56
2023/03/12 03:42:52;;;;;;;3.07;2.80;;;4.40;92.00;;;4.11;56.01;94242.03;5072212;28;20478;-56
2023/03/12 03:45:20;;;;;;;3.70;3.40;;;4.30;92.10;;;4.07;55.92;94243.22;5075421;28;20490;-56
2023/03/12 03:47:47;;;;;;;5.50;3.50;;;4.30;92.20;;;4.05;56.35;94252.09;5072795;28;20486;-54
2023/03/12 03:50:14;;;;;;;6.60;3.37;;;4.20;92.30;;;4.03;56.47;94251.38;5066857;28;20519;-55
2023/03/12 03:52:43;;;;;;;5.57;3.20;;;4.20;92.40;;;4.02;56.39;94249.72;5074202;28;21102;-56
2023/03/12 03:55:10;;;;;;;3.70;3.10;;;4.20;92.40;;;4.01;56.20;94250.66;5070899;28;20942;-57
2023/03/12 03:57:38;;;;;;;8.63;2.87;;;4.20;92.30;;;3.98;56.36;94256.09;5064791;28;20578;-55
2023/03/12 04:00:11;;;;;;;3.87;2.37;;;4.20;92.20;;;3.96;56.29;94256.22;5067707;28;20996;-55
2023/03/12 04:02:38;;;;;;;3.27;3.07;;;4.20;92.20;;;3.95;55.81;94265.78;5069594;28;20819;-58
2023/03/12 04:05:06;;;;;;;6.53;4.97;;;4.10;92.00;;;3.94;56.02;94265.91;5065788;28;20490;-55
2023/03/12 04:07:34;;;;;;;8.27;2.43;;;4.10;92.00;;;3.93;55.74;94267.69;5076819;28;20477;-55
2023/03/12 04:10:02;;;;;;;2.87;2.67;;;4.10;91.70;;;3.89;55.63;94270.63;5074356;28;20474;-55
2023/03/12 04:12:30;;;;;;;2.90;2.60;;;4.10;91.60;;;3.86;55.97;94273.47;5068906;28;21023;-55
2023/03/12 04:14:57;;;;;;;2.20;2.10;;;4.00;91.60;;;3.85;55.46;94274.41;5072299;28;20465;-55
2023/03/12 04:17:24;;;;;;;3.33;2.80;;;4.00;91.40;;;3.83;55.55;94279.72;5076915;28;20497;-56
2023/03/12 04:19:52;;;;;;;6.03;2.80;;;4.00;91.50;;;3.82;55.77;94270.25;5071182;28;20458;-56
2023/03/12 04:22:19;;;;;;;4.47;2.73;;;4.00;91.60;;;3.81;55.21;94275.56;5068250;28;21027;-56
2023/03/12 04:24:46;;;;;;;2.50;2.30;;;4.00;91.60;;;3.79;55.78;94275.66;5078237;28;20982;-55
2023/03/12 04:27:15;;;;;;;6.40;2.10;;;4.00;91.30;;;3.76;55.04;94276.75;5070622;28;20509;-55
2023/03/12 04:29:43;;;;;;;2.10;2.00;;;4.00;91.00;;;3.73;54.35;94283.94;5052279;28;20505;-56
2023/03/12 04:32:11;;;;;;;3.93;1.70;;;4.00;90.50;;;3.68;54.56;94283.44;5070835;28;20490;-56
2023/03/12 04:34:38;;;;;;;2.70;2.17;;;3.90;90.30;;;3.65;54.89;94288.88;5069570;28;20462;-56
2023/03/12 04:37:05;;;;;;;2.03;1.93;;;3.90;90.50;;;3.60;54.25;94297.00;5065406;28;20582;-55
2023/03/12 04:39:33;;;;;;;2.80;2.00;;;3.80;90.10;;;3.56;53.67;94299.00;5075869;28;20576;-55
2023/03/12 04:42:00;;;;;;;2.73;2.20;;;3.80;90.10;;;3.54;54.52;94300.06;5074041;28;20486;-55
2023/03/12 04:44:28;;;;;;;3.00;1.60;;;3.80;90.00;;;3.51;54.07;94319.28;5064920;28;20466;-55
2023/03/12 04:46:56;;;;;;;1.83;1.67;;;3.70;90.00;;;3.52;54.41;94314.94;5067511;28;20551;-54
2023/03/12 04:49:23;;;;;;;2.17;2.00;;;3.70;90.00;;;3.52;54.25;94326.16;5075849;28;20466;-56
2023/03/12 04:51:50;;;;;;;10.33;2.10;;;3.70;90.20;;;3.51;54.88;94329.69;5068736;28;20698;-57
2023/03/12 04:54:19;;;;;;;2.30;2.10;;;3.70;90.10;;;3.56;54.46;94332.81;5067971;28;20470;-56
2023/03/12 04:56:47;;;;;;;2.57;2.10;;;3.80;90.30;;;3.60;54.18;94328.22;5074803;28;20879;-55
2023/03/12 04:59:14;;;;;;;2.00;1.80;;;3.80;89.80;;;3.61;54.06;94336.84;5073148;28;20550;-56
2023/03/12 05:01:43;;;;;;;3.83;1.97;;;3.90;89.90;;;3.61;53.71;94336.84;5064231;28;21130;-56
2023/03/12 05:04:10;;;;;;;4.23;2.63;;;3.80;89.20;;;3.61;54.06;94334.22;5075403;28;20465;-56
2023/03/12 05:06:37;;;;;;;4.77;2.07;;;3.80;89.50;;;3.62;54.51;94335.91;5065331;28;20512;-54
2023/03/12 05:09:04;;;;;;;2.17;2.07;;;3.80;89.70;;;3.60;54.15;94343.81;5060903;28;20532;-57
2023/03/12 05:11:32;;;;;;;7.60;2.90;;;3.80;89.40;;;3.61;53.52;94349.84;5069517;28;21049;-55
2023/03/12 05:13:59;;;;;;;2.10;2.00;;;3.80;90.00;;;3.62;53.76;94364.50;5070777;28;20959;-56
2023/03/12 05:16:26;;;;;;;8.13;3.10;;;3.80;89.90;;;3.62;54.01;94364.50;5066920;28;20846;-57
2023/03/12 05:18:55;;;;;;;3.37;2.90;;;3.90;90.00;;;3.63;54.14;94363.56;5069963;28;20460;-55
2023/03/12 05:21:22;;;;;;;2.70;2.50;;;3.80;89.80;;;3.65;54.53;94366.88;5072849;28;20458;-56
2023/03/12 05:23:49;;;;;;;9.67;2.80;;;3.90;90.10;;;3.68;53.95;94367.47;5070557;28;20505;-57
2023/03/12 05:26:18;;;;;;;3.13;2.83;;;3.90;90.10;;;3.71;54.01;94371.66;5064259;28;20517;-57
2023/03/12 05:28:46;;;;;;;3.27;2.97;;;3.90;90.00;;;3.76;54.53;94374.72;5066550;28;20548;-56
2023/03/12 05:31:13;;;;;;;4.60;3.17;;;4.00;90.10;;;3.82;54.29;94379.50;5069539;28;20451;-55
2023/03/12 05:33:40;;;;;;;3.63;3.30;;;4.00;90.00;;;3.86;53.82;94380.13;5064629;28;20461;-57
2023/03/12 05:36:09;;;;;;;3.87;3.50;;;4.00;90.00;;;3.90;54.17;94389.34;5065041;28;20459;-56
2023/03/12 05:38:37;;;;;;;4.03;3.20;;;4.10;90.00;;;3.93;53.75;94387.38;5072074;28;20455;-55
2023/03/12 05:41:04;;;;;;;3.33;3.10;;;4.10;89.90;;;3.98;53.98;94391.38;5063225;28;20537;-55
2023/03/12 05:43:32;;;;;;;5.07;3.90;;;4.20;89.50;;;4.01;53.60;94394.59;5071546;28;20466;-55
2023/03/12 05:46:00;;;;;;;3.37;3.10;;;4.20;89.50;;;4.05;53.30;94395.22;5063952;28;20498;-55
2023/03/12 05:48:27;;;;;;;2.00;1.90;;;4.20;89.30;;;4.11;53.50;94399.97;5066088;28;20514;-55
2023/03/12 05:50:54;;;;;;;3.57;3.27;;;4.30;88.80;;;4.16;52.75;94402.25;5070490;28;20485;-55
2023/03/12 05:53:23;;;;;;;2.07;1.97;;;4.30;88.30;;;4.18;52.79;94406.38;5073257;28;21419;-57
2023/03/12 05:55:50;;;;;;;5.10;2.60;;;4.40;87.20;;;4.21;52.05;94407.94;5066650;28;20454;-56
2023/03/12 05:58:18;;;;;;;1.67;1.57;;;4.40;86.10;;;4.24;52.27;94411.13;5066246;28;20473;-54
2023/03/12 06:00:45;;;;;;;2.00;1.80;;;4.40;86.30;;;4.31;51.71;94409.75;5075265;28;20486;-56
2023/03/12 06:03:13;;;;;;;2.67;2.10;;;4.50;85.70;;;4.40;51.16;94412.59;5061102;28;20493;-56
2023/03/12 06:05:40;;;;;;;2.03;1.93;;;4.60;84.30;;;4.50;51.25;94421.41;5061207;28;20490;-56
2023/03/12 06:08:07;;;;;;;2.30;1.90;;;4.60;83.90;;;4.64;50.61;94433.38;5068944;28;21299;-55
2023/03/12 06:10:38;;;;;;;2.10;2.00;;;4.80;84.00;;;4.84;50.04;94422.28;5072267;28;20451;-56
2023/03/12 06:13:05;;;;;;;3.93;1.83;;;4.90;82.00;;;5.09;49.30;94440.44;5066989;28;20563;-55
2023/03/12 06:15:32;;;;;;;2.10;1.90;;;5.10;80.30;;;5.33;49.34;94440.31;5070235;28;20576;-55
2023/03/12 06:18:00;;;;;;;2.00;1.83;;;5.40;80.90;;;5.62;49.05;94437.25;5065479;28;20536;-56
2023/03/12 06:20:27;;;;;;;4.03;1.83;;;5.60;80.10;;;5.90;48.53;94444.56;5064730;28;20455;-57
2023/03/12 06:22:54;;;;;;;3.57;1.80;;;5.80;79.90;;;6.23;48.59;94444.63;5073312;28;20478;-56
2023/03/12 06:25:21;;;;;;;2.23;2.07;;;6.10;79.70;;;6.57;47.54;94447.94;5075083;28;20528;-57
2023/03/12 06:27:50;;;;;;;2.70;2.13;;;6.40;78.20;;;6.91;47.17;94445.13;5071612;28;20585;-55
2023/03/12 06:30:18;;;;;;;3.80;1.90;;;6.80;76.40;;;7.21;45.82;94455.75;5069386;28;20959;-55
2023/03/12 06:32:45;;;;;;;1.70;1.50;;;7.10;74.20;;;7.48;45.38;94455.19;5071392;28;20479;-57
2023/03/12 06:35:12;;;;;;;2.43;1.43;;;7.40;73.30;;;7.79;44.06;94458.63;5062596;28;20538;-57
2023/03/12 06:37:40;;;;;;;1.97;1.30;;;7.70;71.00;;;8.11;44.85;94462.84;5061713;28;20487;-58
2023/03/12 06:40:09;;;;;;;4.50;1.73;;;8.00;71.50;;;8.39;43.73;94460.41;5072841;28;20577;-56
2023/03/12 06:42:37;;;;;;;3.67;1.87;;;8.30;68.50;;;8.63;43.07;94465.28;5075699;28;21005;-56
2023/03/12 06:45:07;;;;;;;2.30;1.73;;;8.50;66.50;;;8.86;41.24;94450.09;5060777;28;20917;-56
2023/03/12 06:47:34;;;;;;;3.23;2.27;;;8.70;63.10;;;9.12;42.81;94465.22;5072406;28;20570;-56
2023/03/12 06:50:02;;;;;;;2.17;1.73;;;9.00;65.80;;;9.32;40.72;94466.81;5077200;28;20996;-57
2023/03/12 06:52:29;;;;;;;1.47;1.37;;;9.20;61.00;;;9.51;40.77;94476.47;5068393;28;21025;-54
2023/03/12 06:54:56;;;;;;;2.03;1.40;;;9.40;60.80;;;9.80;39.42;94479.94;5062901;28;20453;-56
2023/03/12 06:57:24;;;;;;;1.60;1.50;;;9.60;58.90;;;10.08;39.88;94479.97;5068729;28;20543;-55
2023/03/12 06:59:51;;;;;;;2.10;1.90;;;9.90;58.60;;;10.29;40.15;94480.53;5065716;28;20529;-56
2023/03/12 07:02:20;;;;;;;1.63;1.53;;;10.10;57.90;;;10.52;39.68;94478.34;5060434;28;20503;-55
2023/03/12 07:04:48;;;;;;;2.17;1.30;;;10.40;57.90;;;10.82;37.22;94483.38;5072014;28;20586;-57
2023/03/12 07:07:17;;;;;;;1.60;1.50;;;10.60;55.50;;;11.10;36.99;94482.28;5064948;28;20500;-56
2023/03/12 07:09:44;;;;;;;2.40;1.97;;;10.90;53.60;;;11.42;36.90;94491.41;5067258;28;20460;-57
2023/03/12 07:12:11;;;;;;;1.70;1.60;;;11.20;53.80;;;11.75;36.46;94491.59;5081680;28;20499;-55
2023/03/12 07:14:38;;;;;;;1.93;1.83;;;11.50;53.00;;;12.04;35.60;94487.84;5060200;28;21338;-56
2023/03/12 07:17:07;;;;;;;2.07;1.87;;;11.80;52.10;;;12.32;35.75;94495.53;5071865;28;20490;-55
2023/03/12 07:19:36;;;;;;;2.60;1.83;;;12.10;51.50;;;12.61;35.95;94504.81;5078639;28;20454;-57
2023/03/12 07:22:03;;;;;;;2.30;2.10;;;12.30;51.60;;;12.94;36.37;94516.28;5066576;28;20554;-57
2023/03/12 07:24:30;;;;;;;2.60;1.70;;;12.60;53.10;;;13.36;36.73;94519.81;5065402;28;20451;-57
2023/03/12 07:26:58;;;;;;;1.83;1.73;;;13.00;52.80;;;13.75;36.39;94517.25;5070171;28;20497;-56
2023/03/12 07:29:25;;;;;;;1.80;1.70;;;13.40;52.30;;;14.11;35.60;94523.97;5069149;28;20455;-56
2023/03/12 07:31:52;;;;;;;2.70;2.50;;;13.80;51.50;;;14.49;36.49;94532.09;5063352;28;20498;-57
2023/03/12 07:34:19;;;;;;;3.10;1.50;;;14.10;52.20;;;14.81;35.61;94522.34;5060873;28;20488;-55
2023/03/12 07:36:48;;;;;;;3.93;1.90;;;14.50;51.30;;;15.19;34.58;94525.09;5060507;28;20475;-56
2023/03/12 07:39:15;;;;;;;3.87;1.33;;;14.80;50.30;;;15.70;34.85;94529.81;5064821;28;20454;-57
2023/03/12 07:41:42;;;;;;;18.90;2.40;;;15.30;50.70;;;16.18;33.02;94527.72;5069170;28;20520;-55
2023/03/12 07:44:10;;;;;;;3.10;2.27;;;15.80;49.30;;;16.65;34.39;94528.31;5068469;28;20462;-58
2023/03/12 07:46:37;;;;;;;2.10;2.00;;;16.30;49.40;;;17.12;32.83;94524.38;5068558;28;20885;-55
2023/03/12 07:49:04;;;;;;;4.93;2.37;;;16.90;47.60;;;17.53;32.46;94531.72;5066987;28;20450;-54
2023/03/12 07:51:32;;;;;;;2.60;2.40;;;17.40;47.00;;;17.95;32.91;94531.88;5078576;28;20541;-56
2023/03/12 07:54:00;;;;;;;11.13;2.23;;;17.90;47.40;;;18.27;32.09;94527.78;5071881;28;20535;-56
2023/03/12 07:56:27;;;;;;;2.70;2.20;;;18.30;46.40;;;18.42;31.56;94534.84;5068290;28;20844;-58
2023/03/12 07:58:55;;;;;;;2.53;1.63;;;18.50;44.60;;;18.41;30.05;94534.00;5063014;28;20446;-54
2023/03/12 08:01:24;;;;;;;3.53;1.93;;;18.60;42.30;;;18.52;31.39;94539.81;5070446;28;20543;-55
2023/03/12 08:03:51;;;;;;;2.20;2.00;;;18.80;44.50;;;18.73;30.59;94541.53;5068136;28;20452;-55
2023/03/12 08:06:18;;;;;;;2.10;1.93;;;18.90;42.70;;;18.93;27.12;94539.81;5068080;28;20498;-57
2023/03/12 08:08:46;;;;;;;2.63;2.43;;;19.10;39.40;;;18.87;28.47;94532.63;5074723;28;20448;-56
2023/03/12 08:11:14;;;;;;;4.10;2.17;;;19.10;39.80;;;18.84;29.34;94541.00;5066928;28;20478;-56
2023/03/12 08:13:41;;;;;;;2.13;2.03;;;19.00;40.70;;;18.70;28.57;94547.25;5064191;28;20467;-57
2023/03/12 08:16:09;;;;;;;4.10;1.90;;;18.90;39.60;;;18.56;26.07;94531.25;5083135;28;20460;-54
2023/03/12 08:18:36;;;;;;;2.30;2.20;;;18.80;37.30;;;18.53;26.10;94542.28;5073821;28;20848;-57
2023/03/12 08:21:04;;;;;;;3.23;2.57;;;18.70;35.70;;;18.52;27.81;94551.28;5067525;28;20850;-56
2023/03/12 08:23:31;;;;;;;2.30;2.20;;;18.70;38.00;;;18.57;26.94;94556.81;5058722;28;20462;-57
2023/03/12 08:25:59;;;;;;;2.23;2.03;;;18.70;36.30;;;18.66;27.85;94557.50;5068827;28;21368;-57
2023/03/12 08:28:27;;;;;;;7.00;2.57;;;18.80;38.10;;;18.86;28.03;94546.97;5068779;28;20847;-57
2023/03/12 08:30:55;;;;;;;2.17;1.70;;;18.90;39.00;;;18.80;24.72;94551.19;5059473;28;20842;-58
2023/03/12 08:33:23;;;;;;;2.30;2.10;;;18.90;35.10;;;18.68;25.72;94554.63;5060755;28;20479;-57
2023/03/12 08:35:50;;;;;;;1.90;1.80;;;18.80;35.30;;;18.72;26.84;94558.56;5071164;28;21061;-54
2023/03/12 08:38:17;;;;;;;4.10;1.90;;;18.70;36.00;;;18.76;26.57;94557.13;5071121;28;20473;-56
2023/03/12 08:40:45;;;;;;;1.87;1.77;;;18.80;36.90;;;18.83;26.50;94551.84;5070129;28;20529;-57
2023/03/12 08:43:12;;;;;;;2.30;2.10;;;18.80;35.70;;;18.85;26.15;94561.28;5066647;28;20980;-57
2023/03/12 08:45:41;;;;;;;3.53;2.17;;;18.80;35.80;;;18.82;26.13;94572.31;5063898;28;23054;-56
2023/03/12 08:48:08;;;;;;;5.63;1.90;;;18.80;36.90;;;18.92;26.75;94580.81;5067135;28;20562;-57
2023/03/12 08:50:35;;;;;;;4.40;2.20;;;18.80;36.90;;;19.08;24.98;94566.31;5068482;28;20525;-54
2023/03/12 08:53:03;;;;;;;1.93;1.83;;;18.90;35.50;;;19.18;25.14;94563.28;5063423;28;20475;-56
2023/03/12 08:55:30;;;;;;;2.20;1.73;;;18.90;35.80;;;19.19;26.59;94569.44;5073032;28;20461;-57
2023/03/12 08:57:57;;;;;;;10.30;2.13;;;19.00;36.90;;;19.31;24.80;94562.50;5074393;28;20482;-58
2023/03/12 09:00:25;;;;;;;2.70;2.50;;;19.00;34.60;;;19.31;25.70;94581.97;5072249;28;20550;-57
2023/03/12 09:02:56;;;;;;;2.93;2.67;;;19.00;36.30;;;19.24;24.50;94586.47;5070272;28;20543;-56
2023/03/12 09:05:24;;;;;;;5.90;2.80;;;19.00;34.20;;;19.09;25.70;94573.28;5078837;28;21087;-57
2023/03/12 09:07:51;;;;;;;1.77;1.67;;;18.90;35.80;;;19.08;24.05;94570.81;5066622;28;20498;-57
2023/03/12 09:10:19;;;;;;;2.67;2.30;;;18.90;34.50;;;18.98;23.40;94561.38;5068155;28;20509;-58
2023/03/12 09:12:46;;;;;;;8.00;2.80;;;18.80;32.80;;;18.74;24.41;94569.84;5080335;28;20466;-54
2023/03/12 09:15:13;;;;;;;2.33;2.23;;;18.60;32.90;;;18.58;25.90;94579.78;5074041;28;20451;-60
2023/03/12 09:17:40;;;;;;;3.43;2.10;;;18.50;35.40;;;18.64;25.12;94579.00;5065281;28;20475;-55
2023/03/12 09:20:12;;;;;;;2.77;2.50;;;18.40;35.20;;;18.84;25.94;94575.63;5077555;28;20461;-57
2023/03/12 09:22:40;;;;;;;3.20;2.20;;;18.60;35.60;;;19.10;25.30;94584.78;5074018;28;20467;-54
2023/03/12 09:25:09;;;;;;;3.80;2.20;;;18.70;35.70;;;19.29;26.16;94573.34;5069031;28;20522;-57
2023/03/12 09:27:37;;;;;;;2.70;2.50;;;19.00;36.40;;;19.44;23.72;94580.34;5075852;28;20544;-57
2023/03/12 09:30:07;;;;;;;5.33;2.23;;;19.10;33.30;;;19.43;26.04;94582.22;5075338;28;20546;-56
2023/03/12 09:32:34;;;;;;;2.63;2.00;;;19.20;35.80;;;19.46;24.09;94568.47;5069978;28;20478;-57
2023/03/12 09:35:01;;;;;;;2.13;1.93;;;19.20;33.40;;;19.34;25.66;94572.75;5072506;28;20532;-59
2023/03/12 09:37:31;;;;;;;2.00;1.80;;;19.10;34.80;;;19.28;24.94;94566.38;5077677;28;21025;-58
2023/03/12 09:39:58;;;;;;;1.63;1.53;;;19.10;34.50;;;19.14;24.61;94562.84;5070983;28;20512;-56
2023/03/12 09:42:27;;;;;;;1.97;1.83;;;19.00;33.30;;;18.93;24.52;94568.31;5069045;28;21031;-55
2023/03/12 09:44:55;;;;;;;5.27;2.20;;;18.80;32.40;;;18.69;24.66;94580.28;5075406;28;20454;-56
2023/03/12 09:47:26;;;;;;;1.60;1.50;;;18.60;33.60;;;18.53;25.27;94568.91;5072661;28;20558;-56
2023/03/12 09:49:55;;;;;;;1.83;1.73;;;18.40;34.20;;;18.52;24.92;94567.25;5067589;28;20447;-55
2023/03/12 09:52:25;;;;;;;1.73;1.63;;;18.40;34.40;;;18.43;25.37;94573.75;5078224;28;20470;-56
2023/03/12 09:54:58;;;;;;;3.40;3.10;;;18.30;33.60;;;18.34;25.12;94572.28;5071216;28;20453;-56
2023/03/12 09:57:26;;;;;;;7.37;2.20;;;18.10;34.10;;;18.34;25.38;94569.59;5063546;28;20478;-56
2023/03/12 09:59:53;;;;;;;2.80;2.60;;;18.20;34.30;;;18.32;23.87;94569.81;5078061;28;20458;-57
2023/03/12 10:02:56;;;;;;;2.27;2.00;;;18.10;33.00;;;18.15;23.52;94571.94;5073239;28;20486;-55
2023/03/12 10:05:31;;;;;;;5.83;3.50;;;18.00;32.40;;;18.02;25.55;94579.84;5066147;28;20453;-55
2023/03/12 10:08:00;;;;;;;3.27;1.93;;;17.90;34.40;;;18.10;26.29;94569.88;5074725;28;20495;-56
2023/03/12 10:10:44;;;;;;;2.40;2.20;;;17.90;35.60;;;18.18;23.92;94566.22;5074263;28;20457;-57
2023/03/12 10:13:20;;;;;;;8.30;2.00;;;17.90;33.80;;;18.21;25.45;94573.81;5066427;28;20471;-57
2023/03/12 10:15:56;;;;;;;5.47;1.90;;;18.00;35.40;;;18.41;25.15;94568.63;5077643;28;20813;-57
2023/03/12 10:18:34;;;;;;;1.73;1.60;;;18.10;35.20;;;18.54;24.23;94567.88;5073933;28;20553;-56
2023/03/12 10:21:13;;;;;;;2.30;2.10;;;18.20;33.50;;;18.41;25.69;94565.16;5068248;28;20533;-57
2023/03/12 10:24:15;;;;;;;2.27;2.07;;;18.20;35.00;;;18.35;25.33;94572.06;5073688;28;20451;-55
2023/03/12 10:26:45;;;;;;;3.00;1.60;;;18.10;34.80;;;18.54;25.20;94581.19;5074098;28;20966;-56
2023/03/12 10:29:16;;;;;;;2.13;1.40;;;18.20;35.10;;;18.78;26.29;94571.91;5069027;28;20447;-57
2023/03/12 10:31:51;;;;;;;1.93;1.83;;;18.40;35.60;;;19.10;25.98;94574.94;5073171;28;20470;-58